sensor_id;sensor_type;location;lat;lon;timestamp;pressure;altitude;pressure_sealevel;temperature;humidity
70011;BME280;59543;37.950;-122.338;2023-02-18T00:01:22;101579.41;;;16.20;23.08
70011;BME280;59543;37.950;-122.338;2023-02-18T00:03:48;101576.00;;;16.10;22.85
70011;BME280;59543;37.950;-122.338;2023-02-18T00:06:28;101570.34;;;16.03;23.18
70011;BME280;59543;37.950;-122.338;2023-02-18T00:08:54;101574.47;;;16.15;23.27
70011;BME280;59543;37.950;-122.338;2023-02-18T00:11:23;101566.97;;;16.01;22.87
70011;BME280;59543;37.950;-122.338;2023-02-18T00:13:49;101563.41;;;16.09;24.39
70011;BME280;59543;37.950;-122.338;2023-02-18T00:16:15;101574.09;;;16.02;23.59
70011;BME280;59543;37.950;-122.338;2023-02-18T00:18:41;101564.59;;;15.98;23.92
70011;BME280;59543;37.950;-122.338;2023-02-18T00:21:07;101566.75;;;15.94;23.76
70011;BME280;59543;37.950;-122.338;2023-02-18T00:23:33;101567.28;;;15.90;23.60
70011;BME280;59543;37.950;-122.338;2023-02-18T00:25:59;101567.13;;;15.99;24.14
70011;BME280;59543;37.950;-122.338;2023-02-18T00:28:25;101558.09;;;15.91;23.44
70011;BME280;59543;37.950;-122.338;2023-02-18T00:30:51;101564.69;;;15.80;23.27
70011;BME280;59543;37.950;-122.338;2023-02-18T00:33:17;101558.75;;;15.85;23.36
70011;BME280;59543;37.950;-122.338;2023-02-18T00:35:43;101566.44;;;15.89;24.08
70011;BME280;59543;37.950;-122.338;2023-02-18T00:38:09;101556.13;;;16.01;23.49
70011;BME280;59543;37.950;-122.338;2023-02-18T00:40:38;101560.75;;;16.17;23.47
70011;BME280;59543;37.950;-122.338;2023-02-18T00:43:04;101556.16;;;16.17;23.59
70011;BME280;59543;37.950;-122.338;2023-02-18T00:45:30;101551.72;;;16.08;24.01
70011;BME280;59543;37.950;-122.338;2023-02-18T00:47:56;101546.06;;;15.93;24.26
70011;BME280;59543;37.950;-122.338;2023-02-18T00:50:21;101552.81;;;15.81;23.74
70011;BME280;59543;37.950;-122.338;2023-02-18T00:52:47;101548.94;;;15.84;24.31
70011;BME280;59543;37.950;-122.338;2023-02-18T00:55:13;101556.69;;;15.70;24.69
70011;BME280;59543;37.950;-122.338;2023-02-18T00:57:39;101551.59;;;15.75;24.24
70011;BME280;59543;37.950;-122.338;2023-02-18T01:00:06;101539.81;;;15.59;24.59
70011;BME280;59543;37.950;-122.338;2023-02-18T01:02:33;101547.56;;;15.80;24.63
70011;BME280;59543;37.950;-122.338;2023-02-18T01:04:59;101553.00;;;15.80;24.23
70011;BME280;59543;37.950;-122.338;2023-02-18T01:07:24;101550.94;;;15.82;24.63
70011;BME280;59543;37.950;-122.338;2023-02-18T01:09:50;101556.44;;;15.64;24.77
70011;BME280;59543;37.950;-122.338;2023-02-18T01:12:16;101556.56;;;15.54;24.85
70011;BME280;59543;37.950;-122.338;2023-02-18T01:14:42;101550.56;;;15.42;24.92
70011;BME280;59543;37.950;-122.338;2023-02-18T01:17:08;101552.16;;;15.53;24.96
70011;BME280;59543;37.950;-122.338;2023-02-18T01:19:34;101560.06;;;15.72;29.51
70011;BME280;59543;37.950;-122.338;2023-02-18T01:21:59;101560.63;;;15.58;30.90
70011;BME280;59543;37.950;-122.338;2023-02-18T01:24:25;101560.03;;;15.38;31.29
70011;BME280;59543;37.950;-122.338;2023-02-18T01:26:51;101561.00;;;15.03;31.94
70011;BME280;59543;37.950;-122.338;2023-02-18T01:29:17;101558.38;;;14.93;32.04
70011;BME280;59543;37.950;-122.338;2023-02-18T01:31:43;101555.22;;;14.80;32.20
70011;BME280;59543;37.950;-122.338;2023-02-18T01:34:09;101567.91;;;14.61;33.39
70011;BME280;59543;37.950;-122.338;2023-02-18T01:36:34;101565.69;;;14.57;33.24
70011;BME280;59543;37.950;-122.338;2023-02-18T01:39:00;101563.19;;;14.46;31.72
70011;BME280;59543;37.950;-122.338;2023-02-18T01:41:26;101560.47;;;14.46;28.85
70011;BME280;59543;37.950;-122.338;2023-02-18T01:46:36;101560.22;;;14.21;29.99
70011;BME280;59543;37.950;-122.338;2023-02-18T01:49:02;101573.13;;;14.09;30.46
70011;BME280;59543;37.950;-122.338;2023-02-18T01:51:33;101563.19;;;14.00;30.34
70011;BME280;59543;37.950;-122.338;2023-02-18T01:54:14;101566.09;;;13.89;30.92
70011;BME280;59543;37.950;-122.338;2023-02-18T01:56:43;101575.59;;;13.75;30.73
70011;BME280;59543;37.950;-122.338;2023-02-18T01:59:11;101577.91;;;13.60;30.82
70011;BME280;59543;37.950;-122.338;2023-02-18T02:01:37;101573.53;;;13.49;30.79
70011;BME280;59543;37.950;-122.338;2023-02-18T02:04:04;101580.97;;;13.38;31.75
70011;BME280;59543;37.950;-122.338;2023-02-18T02:06:29;101585.28;;;13.21;33.37
70011;BME280;59543;37.950;-122.338;2023-02-18T02:08:56;101574.16;;;13.14;33.17
70011;BME280;59543;37.950;-122.338;2023-02-18T02:14:00;101579.75;;;12.93;33.77
70011;BME280;59543;37.950;-122.338;2023-02-18T02:16:31;101584.31;;;12.73;34.30
70011;BME280;59543;37.950;-122.338;2023-02-18T02:24:11;101592.69;;;12.41;35.27
70011;BME280;59543;37.950;-122.338;2023-02-18T02:36:55;101592.38;;;11.84;36.15
70011;BME280;59543;37.950;-122.338;2023-02-18T02:42:00;101600.75;;;11.30;37.68
70011;BME280;59543;37.950;-122.338;2023-02-18T02:44:30;101602.94;;;11.15;38.97
70011;BME280;59543;37.950;-122.338;2023-02-18T02:47:01;101616.41;;;11.15;38.79
70011;BME280;59543;37.950;-122.338;2023-02-18T02:49:36;101616.56;;;11.13;38.48
70011;BME280;59543;37.950;-122.338;2023-02-18T02:52:51;101610.97;;;11.05;38.59
70011;BME280;59543;37.950;-122.338;2023-02-18T02:54:57;101613.22;;;10.89;38.93
70011;BME280;59543;37.950;-122.338;2023-02-18T02:59:51;101629.34;;;10.68;40.51
70011;BME280;59543;37.950;-122.338;2023-02-18T03:10:38;101643.00;;;10.21;41.66
70011;BME280;59543;37.950;-122.338;2023-02-18T03:15:49;101646.69;;;10.20;42.43
70011;BME280;59543;37.950;-122.338;2023-02-18T03:18:40;101642.28;;;10.19;43.13
70011;BME280;59543;37.950;-122.338;2023-02-18T03:21:09;101640.06;;;10.24;44.41
70011;BME280;59543;37.950;-122.338;2023-02-18T03:26:25;101636.94;;;10.08;47.26
70011;BME280;59543;37.950;-122.338;2023-02-18T03:28:53;101643.41;;;10.05;47.49
70011;BME280;59543;37.950;-122.338;2023-02-18T03:31:21;101638.28;;;10.02;47.16
70011;BME280;59543;37.950;-122.338;2023-02-18T03:34:11;101642.66;;;10.03;46.94
70011;BME280;59543;37.950;-122.338;2023-02-18T03:36:36;101638.53;;;9.99;46.26
70011;BME280;59543;37.950;-122.338;2023-02-18T03:39:13;101640.34;;;10.10;47.36
70011;BME280;59543;37.950;-122.338;2023-02-18T03:41:40;101643.75;;;10.12;46.90
70011;BME280;59543;37.950;-122.338;2023-02-18T03:44:06;101647.69;;;9.97;47.89
70011;BME280;59543;37.950;-122.338;2023-02-18T03:46:33;101644.00;;;9.87;47.56
70011;BME280;59543;37.950;-122.338;2023-02-18T03:48:59;101649.75;;;9.82;47.33
70011;BME280;59543;37.950;-122.338;2023-02-18T03:51:25;101647.66;;;9.74;48.03
70011;BME280;59543;37.950;-122.338;2023-02-18T03:53:51;101652.41;;;9.59;48.71
70011;BME280;59543;37.950;-122.338;2023-02-18T03:56:17;101655.13;;;9.48;48.25
70011;BME280;59543;37.950;-122.338;2023-02-18T03:58:43;101659.13;;;9.43;48.31
70011;BME280;59543;37.950;-122.338;2023-02-18T04:01:09;101658.38;;;9.41;48.51
70011;BME280;59543;37.950;-122.338;2023-02-18T04:03:36;101656.38;;;9.20;48.38
70011;BME280;59543;37.950;-122.338;2023-02-18T04:06:01;101661.16;;;9.28;47.96
70011;BME280;59543;37.950;-122.338;2023-02-18T04:08:27;101650.00;;;9.10;48.38
70011;BME280;59543;37.950;-122.338;2023-02-18T04:10:53;101660.69;;;8.99;49.59
70011;BME280;59543;37.950;-122.338;2023-02-18T04:13:19;101665.91;;;8.89;49.72
70011;BME280;59543;37.950;-122.338;2023-02-18T04:15:45;101661.25;;;8.80;50.05
70011;BME280;59543;37.950;-122.338;2023-02-18T04:18:13;101663.28;;;8.76;50.57
70011;BME280;59543;37.950;-122.338;2023-02-18T04:20:39;101656.94;;;8.77;49.96
70011;BME280;59543;37.950;-122.338;2023-02-18T04:23:04;101664.38;;;8.74;50.20
70011;BME280;59543;37.950;-122.338;2023-02-18T04:25:30;101656.88;;;8.66;50.46
70011;BME280;59543;37.950;-122.338;2023-02-18T04:27:56;101662.84;;;8.58;50.77
70011;BME280;59543;37.950;-122.338;2023-02-18T04:30:22;101661.50;;;8.40;50.91
70011;BME280;59543;37.950;-122.338;2023-02-18T04:32:48;101672.00;;;8.30;50.90
70011;BME280;59543;37.950;-122.338;2023-02-18T04:35:14;101670.69;;;8.36;51.17
70011;BME280;59543;37.950;-122.338;2023-02-18T04:37:40;101676.84;;;8.25;50.87
70011;BME280;59543;37.950;-122.338;2023-02-18T04:40:06;101687.41;;;8.15;51.07
70011;BME280;59543;37.950;-122.338;2023-02-18T04:42:32;101682.97;;;8.14;51.34
70011;BME280;59543;37.950;-122.338;2023-02-18T04:44:58;101681.00;;;7.92;51.69
70011;BME280;59543;37.950;-122.338;2023-02-18T04:47:24;101684.84;;;7.75;52.25
70011;BME280;59543;37.950;-122.338;2023-02-18T04:49:49;101693.09;;;7.72;51.40
70011;BME280;59543;37.950;-122.338;2023-02-18T04:52:15;101687.94;;;7.69;52.05
70011;BME280;59543;37.950;-122.338;2023-02-18T04:54:42;101688.59;;;7.47;52.24
70011;BME280;59543;37.950;-122.338;2023-02-18T04:57:08;101683.78;;;7.52;52.33
70011;BME280;59543;37.950;-122.338;2023-02-18T04:59:34;101684.72;;;7.26;52.75
70011;BME280;59543;37.950;-122.338;2023-02-18T05:02:00;101686.41;;;7.27;52.88
70011;BME280;59543;37.950;-122.338;2023-02-18T05:04:26;101683.13;;;7.36;52.44
70011;BME280;59543;37.950;-122.338;2023-02-18T05:06:52;101680.97;;;7.28;52.89
70011;BME280;59543;37.950;-122.338;2023-02-18T05:09:17;101676.69;;;7.26;52.75
70011;BME280;59543;37.950;-122.338;2023-02-18T05:11:43;101677.00;;;7.21;52.61
70011;BME280;59543;37.950;-122.338;2023-02-18T05:14:09;101678.81;;;7.21;52.50
70011;BME280;59543;37.950;-122.338;2023-02-18T05:16:35;101674.22;;;7.23;52.44
70011;BME280;59543;37.950;-122.338;2023-02-18T05:19:01;101670.22;;;7.16;52.47
70011;BME280;59543;37.950;-122.338;2023-02-18T05:21:27;101685.75;;;7.10;52.82
70011;BME280;59543;37.950;-122.338;2023-02-18T05:23:53;101688.53;;;7.09;52.58
70011;BME280;59543;37.950;-122.338;2023-02-18T05:26:18;101687.88;;;7.05;52.41
70011;BME280;59543;37.950;-122.338;2023-02-18T05:28:44;101687.94;;;6.91;53.10
70011;BME280;59543;37.950;-122.338;2023-02-18T05:31:10;101693.94;;;6.95;52.62
70011;BME280;59543;37.950;-122.338;2023-02-18T05:33:36;101691.34;;;6.80;53.01
70011;BME280;59543;37.950;-122.338;2023-02-18T05:36:02;101694.66;;;6.84;52.82
70011;BME280;59543;37.950;-122.338;2023-02-18T05:38:28;101690.94;;;6.86;52.49
70011;BME280;59543;37.950;-122.338;2023-02-18T05:40:54;101690.81;;;6.88;52.34
70011;BME280;59543;37.950;-122.338;2023-02-18T05:43:20;101692.00;;;6.84;52.46
70011;BME280;59543;37.950;-122.338;2023-02-18T05:45:46;101692.28;;;6.79;52.85
70011;BME280;59543;37.950;-122.338;2023-02-18T05:48:12;101687.66;;;6.69;52.93
70011;BME280;59543;37.950;-122.338;2023-02-18T05:50:38;101679.28;;;6.60;53.00
70011;BME280;59543;37.950;-122.338;2023-02-18T05:53:04;101684.72;;;6.59;53.05
70011;BME280;59543;37.950;-122.338;2023-02-18T05:55:30;101685.31;;;6.50;53.21
70011;BME280;59543;37.950;-122.338;2023-02-18T05:57:55;101696.72;;;6.39;53.34
70011;BME280;59543;37.950;-122.338;2023-02-18T06:00:21;101686.53;;;6.17;53.07
70011;BME280;59543;37.950;-122.338;2023-02-18T06:02:47;101692.16;;;5.98;53.95
70011;BME280;59543;37.950;-122.338;2023-02-18T06:05:13;101690.47;;;5.97;53.59
70011;BME280;59543;37.950;-122.338;2023-02-18T06:07:39;101688.13;;;5.91;53.35
70011;BME280;59543;37.950;-122.338;2023-02-18T06:10:05;101683.59;;;5.93;54.57
70011;BME280;59543;37.950;-122.338;2023-02-18T06:12:31;101683.41;;;5.96;53.90
70011;BME280;59543;37.950;-122.338;2023-02-18T06:14:57;101693.78;;;6.01;53.46
70011;BME280;59543;37.950;-122.338;2023-02-18T06:17:23;101692.53;;;6.06;53.30
70011;BME280;59543;37.950;-122.338;2023-02-18T06:19:48;101697.69;;;6.09;53.70
70011;BME280;59543;37.950;-122.338;2023-02-18T06:22:14;101698.03;;;5.74;53.80
70011;BME280;59543;37.950;-122.338;2023-02-18T06:24:40;101698.63;;;5.80;54.19
70011;BME280;59543;37.950;-122.338;2023-02-18T06:27:06;101691.94;;;5.58;54.31
70011;BME280;59543;37.950;-122.338;2023-02-18T06:29:32;101682.56;;;5.37;54.46
70011;BME280;59543;37.950;-122.338;2023-02-18T06:32:00;101687.78;;;5.38;54.98
70011;BME280;59543;37.950;-122.338;2023-02-18T06:34:26;101688.13;;;5.48;54.45
70011;BME280;59543;37.950;-122.338;2023-02-18T06:36:51;101692.91;;;5.57;53.86
70011;BME280;59543;37.950;-122.338;2023-02-18T06:39:17;101692.34;;;5.81;53.42
70011;BME280;59543;37.950;-122.338;2023-02-18T06:41:43;101702.41;;;5.61;53.71
70011;BME280;59543;37.950;-122.338;2023-02-18T06:44:09;101691.53;;;5.50;54.50
70011;BME280;59543;37.950;-122.338;2023-02-18T06:46:35;101695.94;;;5.51;53.99
70011;BME280;59543;37.950;-122.338;2023-02-18T06:49:02;101695.34;;;5.46;53.73
70011;BME280;59543;37.950;-122.338;2023-02-18T06:51:28;101694.00;;;5.39;54.49
70011;BME280;59543;37.950;-122.338;2023-02-18T06:53:53;101695.69;;;5.25;53.70
70011;BME280;59543;37.950;-122.338;2023-02-18T06:56:19;101699.72;;;5.33;53.99
70011;BME280;59543;37.950;-122.338;2023-02-18T06:58:45;101692.94;;;5.41;53.79
70011;BME280;59543;37.950;-122.338;2023-02-18T07:01:11;101697.16;;;5.45;53.98
70011;BME280;59543;37.950;-122.338;2023-02-18T07:03:37;101691.63;;;5.48;53.32
70011;BME280;59543;37.950;-122.338;2023-02-18T07:06:03;101694.19;;;5.50;53.70
70011;BME280;59543;37.950;-122.338;2023-02-18T07:08:29;101694.31;;;5.48;53.49
70011;BME280;59543;37.950;-122.338;2023-02-18T07:10:55;101691.63;;;5.48;53.06
70011;BME280;59543;37.950;-122.338;2023-02-18T07:13:21;101695.44;;;5.44;53.61
70011;BME280;59543;37.950;-122.338;2023-02-18T07:15:47;101690.97;;;5.45;53.70
70011;BME280;59543;37.950;-122.338;2023-02-18T07:18:12;101694.69;;;5.42;54.07
70011;BME280;59543;37.950;-122.338;2023-02-18T07:20:38;101690.97;;;5.45;53.37
70011;BME280;59543;37.950;-122.338;2023-02-18T07:23:04;101691.34;;;5.39;53.74
70011;BME280;59543;37.950;-122.338;2023-02-18T07:25:30;101694.94;;;5.38;53.31
70011;BME280;59543;37.950;-122.338;2023-02-18T07:27:56;101695.72;;;5.40;53.61
70011;BME280;59543;37.950;-122.338;2023-02-18T07:30:22;101699.91;;;5.44;53.26
70011;BME280;59543;37.950;-122.338;2023-02-18T07:32:47;101702.56;;;5.44;53.62
70011;BME280;59543;37.950;-122.338;2023-02-18T07:35:14;101705.44;;;5.41;53.97
70011;BME280;59543;37.950;-122.338;2023-02-18T07:37:46;101702.88;;;5.39;54.24
70011;BME280;59543;37.950;-122.338;2023-02-18T07:40:13;101710.75;;;5.41;54.10
70011;BME280;59543;37.950;-122.338;2023-02-18T07:42:40;101713.59;;;5.23;54.55
70011;BME280;59543;37.950;-122.338;2023-02-18T07:45:06;101708.88;;;5.13;54.55
70011;BME280;59543;37.950;-122.338;2023-02-18T07:47:32;101702.97;;;5.08;54.77
70011;BME280;59543;37.950;-122.338;2023-02-18T07:49:58;101708.03;;;4.96;55.03
70011;BME280;59543;37.950;-122.338;2023-02-18T07:52:23;101702.19;;;4.75;56.19
70011;BME280;59543;37.950;-122.338;2023-02-18T07:54:49;101701.41;;;4.73;55.71
70011;BME280;59543;37.950;-122.338;2023-02-18T07:57:15;101706.63;;;4.75;55.91
70011;BME280;59543;37.950;-122.338;2023-02-18T07:59:41;101710.16;;;4.91;55.88
70011;BME280;59543;37.950;-122.338;2023-02-18T08:02:18;101707.78;;;5.01;54.57
70011;BME280;59543;37.950;-122.338;2023-02-18T08:04:44;101711.31;;;5.01;54.81
70011;BME280;59543;37.950;-122.338;2023-02-18T08:07:14;101711.59;;;4.97;55.41
70011;BME280;59543;37.950;-122.338;2023-02-18T08:09:40;101717.59;;;5.00;54.65
70011;BME280;59543;37.950;-122.338;2023-02-18T08:12:06;101713.97;;;5.01;54.75
70011;BME280;59543;37.950;-122.338;2023-02-18T08:14:32;101718.91;;;4.93;55.06
70011;BME280;59543;37.950;-122.338;2023-02-18T08:16:58;101717.59;;;5.00;55.34
70011;BME280;59543;37.950;-122.338;2023-02-18T08:19:24;101714.09;;;5.00;58.75
70011;BME280;59543;37.950;-122.338;2023-02-18T08:21:49;101717.38;;;4.89;59.99
70011;BME280;59543;37.950;-122.338;2023-02-18T08:24:15;101712.56;;;4.80;60.71
70011;BME280;59543;37.950;-122.338;2023-02-18T08:26:41;101717.09;;;4.78;60.77
70011;BME280;59543;37.950;-122.338;2023-02-18T08:29:07;101728.66;;;4.63;62.08
70011;BME280;59543;37.950;-122.338;2023-02-18T08:31:33;101723.75;;;4.55;61.62
70011;BME280;59543;37.950;-122.338;2023-02-18T08:33:59;101732.69;;;4.54;62.07
70011;BME280;59543;37.950;-122.338;2023-02-18T08:36:26;101731.94;;;4.52;62.50
70011;BME280;59543;37.950;-122.338;2023-02-18T08:38:52;101726.94;;;4.46;62.28
70011;BME280;59543;37.950;-122.338;2023-02-18T08:41:18;101733.19;;;4.45;62.88
70011;BME280;59543;37.950;-122.338;2023-02-18T08:43:44;101728.81;;;4.44;62.22
70011;BME280;59543;37.950;-122.338;2023-02-18T08:46:10;101737.72;;;4.27;62.51
70011;BME280;59543;37.950;-122.338;2023-02-18T08:48:36;101733.53;;;4.23;62.60
70011;BME280;59543;37.950;-122.338;2023-02-18T08:51:12;101729.31;;;4.19;62.80
70011;BME280;59543;37.950;-122.338;2023-02-18T08:53:38;101729.50;;;4.16;60.91
70011;BME280;59543;37.950;-122.338;2023-02-18T08:56:05;101729.31;;;4.19;60.06
70011;BME280;59543;37.950;-122.338;2023-02-18T08:58:31;101731.88;;;4.20;59.89
70011;BME280;59543;37.950;-122.338;2023-02-18T09:01:00;101723.56;;;4.10;58.95
70011;BME280;59543;37.950;-122.338;2023-02-18T09:03:26;101716.53;;;4.09;59.51
70011;BME280;59543;37.950;-122.338;2023-02-18T09:05:52;101718.84;;;4.16;58.84
70011;BME280;59543;37.950;-122.338;2023-02-18T09:08:18;101719.94;;;4.11;59.35
70011;BME280;59543;37.950;-122.338;2023-02-18T09:10:43;101712.22;;;4.07;59.81
70011;BME280;59543;37.950;-122.338;2023-02-18T09:13:09;101718.47;;;4.06;58.76
70011;BME280;59543;37.950;-122.338;2023-02-18T09:15:35;101715.47;;;4.12;58.87
70011;BME280;59543;37.950;-122.338;2023-02-18T09:18:01;101710.47;;;4.06;58.70
70011;BME280;59543;37.950;-122.338;2023-02-18T09:20:27;101707.31;;;4.15;58.86
70011;BME280;59543;37.950;-122.338;2023-02-18T09:22:53;101714.72;;;4.10;59.81
70011;BME280;59543;37.950;-122.338;2023-02-18T09:25:18;101726.16;;;4.28;58.61
70011;BME280;59543;37.950;-122.338;2023-02-18T09:27:44;101727.25;;;4.24;58.94
70011;BME280;59543;37.950;-122.338;2023-02-18T09:30:10;101727.41;;;4.21;58.97
70011;BME280;59543;37.950;-122.338;2023-02-18T09:32:36;101722.53;;;4.13;59.24
70011;BME280;59543;37.950;-122.338;2023-02-18T09:35:03;101715.78;;;4.06;59.41
70011;BME280;59543;37.950;-122.338;2023-02-18T09:37:29;101723.78;;;4.06;58.41
70011;BME280;59543;37.950;-122.338;2023-02-18T09:39:54;101723.63;;;4.09;58.71
70011;BME280;59543;37.950;-122.338;2023-02-18T09:42:21;101718.72;;;4.01;59.12
70011;BME280;59543;37.950;-122.338;2023-02-18T09:44:51;101729.19;;;3.88;60.32
70011;BME280;59543;37.950;-122.338;2023-02-18T09:47:20;101735.63;;;3.67;60.78
70011;BME280;59543;37.950;-122.338;2023-02-18T09:49:52;101729.28;;;3.70;60.78
70011;BME280;59543;37.950;-122.338;2023-02-18T09:52:23;101719.41;;;3.72;60.17
70011;BME280;59543;37.950;-122.338;2023-02-18T09:54:50;101730.31;;;3.67;60.88
70011;BME280;59543;37.950;-122.338;2023-02-18T09:57:26;101720.59;;;3.66;60.64
70011;BME280;59543;37.950;-122.338;2023-02-18T09:59:59;101723.25;;;3.66;60.77
70011;BME280;59543;37.950;-122.338;2023-02-18T10:02:27;101729.84;;;3.59;60.64
70011;BME280;59543;37.950;-122.338;2023-02-18T10:04:53;101729.38;;;3.33;61.63
70011;BME280;59543;37.950;-122.338;2023-02-18T10:07:30;101731.91;;;3.19;62.52
70011;BME280;59543;37.950;-122.338;2023-02-18T10:09:58;101723.13;;;3.17;62.11
70011;BME280;59543;37.950;-122.338;2023-02-18T10:12:26;101718.13;;;3.28;61.82
70011;BME280;59543;37.950;-122.338;2023-02-18T10:14:58;101721.88;;;3.24;61.75
70011;BME280;59543;37.950;-122.338;2023-02-18T10:17:26;101717.66;;;3.20;62.43
70011;BME280;59543;37.950;-122.338;2023-02-18T10:19:53;101726.72;;;3.33;62.20
70011;BME280;59543;37.950;-122.338;2023-02-18T10:22:20;101723.19;;;3.33;61.20
70011;BME280;59543;37.950;-122.338;2023-02-18T10:24:48;101722.81;;;3.23;61.95
70011;BME280;59543;37.950;-122.338;2023-02-18T10:27:34;101719.97;;;3.09;62.29
70011;BME280;59543;37.950;-122.338;2023-02-18T10:30:23;101716.53;;;3.07;62.99
70011;BME280;59543;37.950;-122.338;2023-02-18T10:32:47;101710.78;;;3.16;61.92
70011;BME280;59543;37.950;-122.338;2023-02-18T10:35:30;101709.84;;;3.17;62.60
70011;BME280;59543;37.950;-122.338;2023-02-18T10:40:34;101712.50;;;3.34;61.36
70011;BME280;59543;37.950;-122.338;2023-02-18T10:45:42;101715.22;;;3.50;60.76
70011;BME280;59543;37.950;-122.338;2023-02-18T10:50:48;101699.06;;;3.37;61.63
70011;BME280;59543;37.950;-122.338;2023-02-18T10:53:27;101691.28;;;3.33;62.25
70011;BME280;59543;37.950;-122.338;2023-02-18T10:55:56;101691.69;;;3.25;62.04
70011;BME280;59543;37.950;-122.338;2023-02-18T10:58:26;101685.59;;;3.23;62.28
70011;BME280;59543;37.950;-122.338;2023-02-18T11:00:52;101683.88;;;3.22;62.21
70011;BME280;59543;37.950;-122.338;2023-02-18T11:03:22;101689.91;;;3.26;62.34
70011;BME280;59543;37.950;-122.338;2023-02-18T11:05:52;101687.09;;;3.29;61.88
70011;BME280;59543;37.950;-122.338;2023-02-18T11:08:20;101690.28;;;3.35;61.69
70011;BME280;59543;37.950;-122.338;2023-02-18T11:10:47;101675.59;;;3.28;61.98
70011;BME280;59543;37.950;-122.338;2023-02-18T11:13:17;101667.69;;;3.27;61.04
70011;BME280;59543;37.950;-122.338;2023-02-18T11:20:56;101661.66;;;3.06;62.58
70011;BME280;59543;37.950;-122.338;2023-02-18T11:23:22;101655.72;;;2.83;62.97
70011;BME280;59543;37.950;-122.338;2023-02-18T11:25:56;101660.16;;;3.00;62.61
70011;BME280;59543;37.950;-122.338;2023-02-18T11:28:28;101655.78;;;2.82;62.67
70011;BME280;59543;37.950;-122.338;2023-02-18T11:30:56;101658.22;;;2.86;63.14
70011;BME280;59543;37.950;-122.338;2023-02-18T11:35:56;101654.63;;;2.87;63.10
70011;BME280;59543;37.950;-122.338;2023-02-18T11:38:36;101658.84;;;2.91;63.29
70011;BME280;59543;37.950;-122.338;2023-02-18T11:41:06;101655.47;;;2.88;63.18
70011;BME280;59543;37.950;-122.338;2023-02-18T11:43:32;101650.25;;;2.86;62.93
70011;BME280;59543;37.950;-122.338;2023-02-18T11:46:12;101651.03;;;2.88;63.05
70011;BME280;59543;37.950;-122.338;2023-02-18T11:48:38;101664.16;;;2.91;63.30
70011;BME280;59543;37.950;-122.338;2023-02-18T11:51:07;101673.78;;;2.94;62.90
70011;BME280;59543;37.950;-122.338;2023-02-18T11:53:50;101674.72;;;2.93;62.95
70011;BME280;59543;37.950;-122.338;2023-02-18T11:56:17;101686.25;;;2.74;64.69
70011;BME280;59543;37.950;-122.338;2023-02-18T11:58:45;101690.94;;;2.69;65.93
70011;BME280;59543;37.950;-122.338;2023-02-18T12:01:19;101689.06;;;2.71;66.45
70011;BME280;59543;37.950;-122.338;2023-02-18T12:06:27;101696.25;;;2.69;67.33
70011;BME280;59543;37.950;-122.338;2023-02-18T12:08:55;101699.00;;;2.68;68.31
70011;BME280;59543;37.950;-122.338;2023-02-18T12:11:41;101705.63;;;2.59;68.20
70011;BME280;59543;37.950;-122.338;2023-02-18T12:14:08;101696.50;;;2.65;67.42
70011;BME280;59543;37.950;-122.338;2023-02-18T12:19:12;101682.72;;;2.57;67.29
70011;BME280;59543;37.950;-122.338;2023-02-18T12:26:53;101688.22;;;2.52;66.55
70011;BME280;59543;37.950;-122.338;2023-02-18T12:31:55;101696.19;;;2.52;65.81
70011;BME280;59543;37.950;-122.338;2023-02-18T12:39:52;101689.25;;;2.49;65.74
70011;BME280;59543;37.950;-122.338;2023-02-18T12:50:24;101675.41;;;2.43;65.43
70011;BME280;59543;37.950;-122.338;2023-02-18T13:11:08;101668.59;;;2.37;65.26
70011;BME280;59543;37.950;-122.338;2023-02-18T13:13:38;101673.34;;;2.31;65.37
70011;BME280;59543;37.950;-122.338;2023-02-18T13:16:08;101667.16;;;2.30;65.44
70011;BME280;59543;37.950;-122.338;2023-02-18T13:18:36;101671.31;;;2.36;65.44
70011;BME280;59543;37.950;-122.338;2023-02-18T13:21:04;101668.81;;;2.33;65.48
70011;BME280;59543;37.950;-122.338;2023-02-18T13:23:33;101660.50;;;2.21;65.82
70011;BME280;59543;37.950;-122.338;2023-02-18T13:26:01;101657.63;;;2.26;65.76
70011;BME280;59543;37.950;-122.338;2023-02-18T13:33:33;101657.56;;;2.27;65.46
70011;BME280;59543;37.950;-122.338;2023-02-18T13:36:06;101655.91;;;2.25;65.61
70011;BME280;59543;37.950;-122.338;2023-02-18T13:41:18;101656.91;;;2.22;65.73
70011;BME280;59543;37.950;-122.338;2023-02-18T13:43:45;101653.09;;;2.28;65.56
70011;BME280;59543;37.950;-122.338;2023-02-18T13:46:12;101653.75;;;2.33;65.26
70011;BME280;59543;37.950;-122.338;2023-02-18T13:51:08;101663.56;;;2.31;65.13
70011;BME280;59543;37.950;-122.338;2023-02-18T13:53:35;101668.72;;;2.34;65.07
70011;BME280;59543;37.950;-122.338;2023-02-18T14:01:50;101676.84;;;2.31;64.52
70011;BME280;59543;37.950;-122.338;2023-02-18T14:09:42;101675.06;;;2.13;68.65
70011;BME280;59543;37.950;-122.338;2023-02-18T14:14:53;101690.13;;;2.12;68.93
70011;BME280;59543;37.950;-122.338;2023-02-18T14:22:33;101689.19;;;1.94;69.95
70011;BME280;59543;37.950;-122.338;2023-02-18T14:27:34;101694.53;;;1.74;71.11
70011;BME280;59543;37.950;-122.338;2023-02-18T14:30:01;101703.34;;;1.74;71.40
70011;BME280;59543;37.950;-122.338;2023-02-18T14:32:28;101704.38;;;1.72;71.31
70011;BME280;59543;37.950;-122.338;2023-02-18T14:35:01;101704.22;;;1.75;71.43
70011;BME280;59543;37.950;-122.338;2023-02-18T14:42:45;101700.38;;;1.62;70.91
70011;BME280;59543;37.950;-122.338;2023-02-18T14:45:17;101710.41;;;1.55;71.13
70011;BME280;59543;37.950;-122.338;2023-02-18T14:50:31;101717.44;;;1.56;70.50